sensor_id;sensor_type;location;lat;lon;timestamp;temperature;humidity
16871;DHT22;8552;48.120;-1.456;2024-01-11T00:01:15;-1.00;99.90
16871;DHT22;8552;48.120;-1.456;2024-01-11T00:03:41;-1.00;99.90
16871;DHT22;8552;48.120;-1.456;2024-01-11T00:06:06;-1.10;99.90
16871;DHT22;8552;48.120;-1.456;2024-01-11T00:08:32;-1.10;99.90
16871;DHT22;8552;48.120;-1.456;2024-01-11T00:10:58;-1.10;99.90
16871;DHT22;8552;48.120;-1.456;2024-01-11T00:13:23;-1.10;99.90
16871;DHT22;8552;48.120;-1.456;2024-01-11T00:15:49;-1.10;99.90
16871;DHT22;8552;48.120;-1.456;2024-01-11T00:18:15;-1.10;99.90
16871;DHT22;8552;48.120;-1.456;2024-01-11T00:20:41;-1.20;99.90
16871;DHT22;8552;48.120;-1.456;2024-01-11T00:23:06;-1.20;99.90
16871;DHT22;8552;48.120;-1.456;2024-01-11T00:25:32;-1.20;99.90
16871;DHT22;8552;48.120;-1.456;2024-01-11T00:27:57;-1.30;99.90
16871;DHT22;8552;48.120;-1.456;2024-01-11T00:30:23;-1.30;99.90
16871;DHT22;8552;48.120;-1.456;2024-01-11T00:32:49;-1.30;99.90
16871;DHT22;8552;48.120;-1.456;2024-01-11T00:35:14;-1.30;99.90
16871;DHT22;8552;48.120;-1.456;2024-01-11T00:37:40;-1.40;99.90
16871;DHT22;8552;48.120;-1.456;2024-01-11T00:40:06;-1.50;99.90
16871;DHT22;8552;48.120;-1.456;2024-01-11T00:42:32;-1.50;99.90
16871;DHT22;8552;48.120;-1.456;2024-01-11T00:45:00;-1.50;99.90
16871;DHT22;8552;48.120;-1.456;2024-01-11T00:47:25;-1.60;99.90
16871;DHT22;8552;48.120;-1.456;2024-01-11T00:49:51;-1.60;99.90
16871;DHT22;8552;48.120;-1.456;2024-01-11T00:52:17;-1.60;99.90
16871;DHT22;8552;48.120;-1.456;2024-01-11T00:54:43;-1.70;99.90
16871;DHT22;8552;48.120;-1.456;2024-01-11T00:57:09;-1.70;99.90
16871;DHT22;8552;48.120;-1.456;2024-01-11T00:59:35;-1.70;99.90
16871;DHT22;8552;48.120;-1.456;2024-01-11T01:02:01;-1.70;99.90
16871;DHT22;8552;48.120;-1.456;2024-01-11T01:04:27;-1.80;99.90
16871;DHT22;8552;48.120;-1.456;2024-01-11T01:06:52;-1.80;99.90
16871;DHT22;8552;48.120;-1.456;2024-01-11T01:09:18;-1.80;99.90
16871;DHT22;8552;48.120;-1.456;2024-01-11T01:11:44;-1.90;99.90
16871;DHT22;8552;48.120;-1.456;2024-01-11T01:14:10;-1.90;99.90
16871;DHT22;8552;48.120;-1.456;2024-01-11T01:16:36;-1.90;99.90
16871;DHT22;8552;48.120;-1.456;2024-01-11T01:19:01;-1.90;99.90
16871;DHT22;8552;48.120;-1.456;2024-01-11T01:21:27;-1.90;99.90
16871;DHT22;8552;48.120;-1.456;2024-01-11T01:23:53;-1.90;99.90
16871;DHT22;8552;48.120;-1.456;2024-01-11T01:26:19;-1.90;99.90
16871;DHT22;8552;48.120;-1.456;2024-01-11T01:28:45;-1.90;99.90
16871;DHT22;8552;48.120;-1.456;2024-01-11T01:31:11;-2.00;99.90
16871;DHT22;8552;48.120;-1.456;2024-01-11T01:33:37;-2.00;99.90
16871;DHT22;8552;48.120;-1.456;2024-01-11T01:36:09;-2.00;99.90
16871;DHT22;8552;48.120;-1.456;2024-01-11T01:38:35;-2.00;99.90
16871;DHT22;8552;48.120;-1.456;2024-01-11T01:41:01;-2.00;99.90
16871;DHT22;8552;48.120;-1.456;2024-01-11T01:43:27;-2.10;99.90
16871;DHT22;8552;48.120;-1.456;2024-01-11T01:45:53;-2.10;99.90
16871;DHT22;8552;48.120;-1.456;2024-01-11T01:48:19;-2.10;99.90
16871;DHT22;8552;48.120;-1.456;2024-01-11T01:50:47;-2.10;99.90
16871;DHT22;8552;48.120;-1.456;2024-01-11T01:53:20;-2.20;99.90
16871;DHT22;8552;48.120;-1.456;2024-01-11T01:55:48;-2.20;99.90
16871;DHT22;8552;48.120;-1.456;2024-01-11T01:58:15;-2.20;99.90
16871;DHT22;8552;48.120;-1.456;2024-01-11T02:00:44;-2.30;99.90
16871;DHT22;8552;48.120;-1.456;2024-01-11T02:03:12;-2.30;99.90
16871;DHT22;8552;48.120;-1.456;2024-01-11T02:05:38;-2.30;99.90
16871;DHT22;8552;48.120;-1.456;2024-01-11T02:08:06;-2.30;99.90
16871;DHT22;8552;48.120;-1.456;2024-01-11T02:10:34;-2.30;99.90
16871;DHT22;8552;48.120;-1.456;2024-01-11T02:17:53;-2.40;99.90
16871;DHT22;8552;48.120;-1.456;2024-01-11T02:20:19;-2.30;99.90
16871;DHT22;8552;48.120;-1.456;2024-01-11T02:22:48;-2.30;99.90
16871;DHT22;8552;48.120;-1.456;2024-01-11T02:27:46;-2.40;99.90
16871;DHT22;8552;48.120;-1.456;2024-01-11T02:30:12;-2.40;99.90
16871;DHT22;8552;48.120;-1.456;2024-01-11T02:32:38;-2.50;99.90
16871;DHT22;8552;48.120;-1.456;2024-01-11T02:35:04;-2.40;99.90
16871;DHT22;8552;48.120;-1.456;2024-01-11T02:37:30;-2.50;99.90
16871;DHT22;8552;48.120;-1.456;2024-01-11T02:39:56;-2.50;99.90
16871;DHT22;8552;48.120;-1.456;2024-01-11T02:42:22;-2.50;99.90
16871;DHT22;8552;48.120;-1.456;2024-01-11T02:44:48;-2.40;99.90
16871;DHT22;8552;48.120;-1.456;2024-01-11T02:47:13;-2.50;99.90
16871;DHT22;8552;48.120;-1.456;2024-01-11T02:49:39;-2.50;99.90
16871;DHT22;8552;48.120;-1.456;2024-01-11T02:52:05;-2.30;99.90
16871;DHT22;8552;48.120;-1.456;2024-01-11T02:54:31;-2.30;99.90
16871;DHT22;8552;48.120;-1.456;2024-01-11T02:56:56;-2.30;99.90
16871;DHT22;8552;48.120;-1.456;2024-01-11T02:59:23;-2.50;99.90
16871;DHT22;8552;48.120;-1.456;2024-01-11T03:01:49;-2.60;99.90
16871;DHT22;8552;48.120;-1.456;2024-01-11T03:04:15;-2.60;99.90
16871;DHT22;8552;48.120;-1.456;2024-01-11T03:06:42;-2.60;99.90
16871;DHT22;8552;48.120;-1.456;2024-01-11T03:09:07;-2.40;99.90
16871;DHT22;8552;48.120;-1.456;2024-01-11T03:11:33;-2.40;99.90
16871;DHT22;8552;48.120;-1.456;2024-01-11T03:13:59;-2.10;99.90
16871;DHT22;8552;48.120;-1.456;2024-01-11T03:16:25;-2.30;99.90
16871;DHT22;8552;48.120;-1.456;2024-01-11T03:18:50;-2.30;99.90
16871;DHT22;8552;48.120;-1.456;2024-01-11T03:21:16;-2.10;99.90
16871;DHT22;8552;48.120;-1.456;2024-01-11T03:23:42;-2.30;99.90
16871;DHT22;8552;48.120;-1.456;2024-01-11T03:26:15;-2.20;99.90
16871;DHT22;8552;48.120;-1.456;2024-01-11T03:28:41;-2.30;99.90
16871;DHT22;8552;48.120;-1.456;2024-01-11T03:31:08;-2.10;99.90
16871;DHT22;8552;48.120;-1.456;2024-01-11T03:33:34;-2.20;99.90
16871;DHT22;8552;48.120;-1.456;2024-01-11T03:35:59;-2.20;99.90
16871;DHT22;8552;48.120;-1.456;2024-01-11T03:38:25;-2.00;99.90
16871;DHT22;8552;48.120;-1.456;2024-01-11T03:43:18;-2.20;99.90
16871;DHT22;8552;48.120;-1.456;2024-01-11T03:45:43;-2.10;99.90
16871;DHT22;8552;48.120;-1.456;2024-01-11T03:48:09;-2.00;99.90
16871;DHT22;8552;48.120;-1.456;2024-01-11T03:53:03;-2.40;99.90
16871;DHT22;8552;48.120;-1.456;2024-01-11T03:55:31;-2.40;99.90
16871;DHT22;8552;48.120;-1.456;2024-01-11T03:57:57;-2.40;99.90
16871;DHT22;8552;48.120;-1.456;2024-01-11T04:00:23;-2.40;99.90
16871;DHT22;8552;48.120;-1.456;2024-01-11T04:02:48;-2.40;99.90
16871;DHT22;8552;48.120;-1.456;2024-01-11T04:05:14;-2.40;99.90
16871;DHT22;8552;48.120;-1.456;2024-01-11T04:07:41;-2.50;99.90
16871;DHT22;8552;48.120;-1.456;2024-01-11T04:10:07;-2.50;99.90
16871;DHT22;8552;48.120;-1.456;2024-01-11T04:12:35;-2.50;99.90
16871;DHT22;8552;48.120;-1.456;2024-01-11T04:15:02;-2.50;99.90
16871;DHT22;8552;48.120;-1.456;2024-01-11T04:17:27;-2.50;99.90
16871;DHT22;8552;48.120;-1.456;2024-01-11T04:19:53;-2.40;99.90
16871;DHT22;8552;48.120;-1.456;2024-01-11T04:22:19;-2.10;99.90
16871;DHT22;8552;48.120;-1.456;2024-01-11T04:24:45;-2.20;99.90
16871;DHT22;8552;48.120;-1.456;2024-01-11T04:27:10;-2.20;99.90
16871;DHT22;8552;48.120;-1.456;2024-01-11T04:29:36;-2.40;99.90
16871;DHT22;8552;48.120;-1.456;2024-01-11T04:32:02;-2.20;99.90
16871;DHT22;8552;48.120;-1.456;2024-01-11T14:54:14;6.10;99.90
16871;DHT22;8552;48.120;-1.456;2024-01-11T14:56:42;6.00;99.90
16871;DHT22;8552;48.120;-1.456;2024-01-11T14:59:08;6.20;99.90
16871;DHT22;8552;48.120;-1.456;2024-01-11T15:01:36;6.20;99.90
16871;DHT22;8552;48.120;-1.456;2024-01-11T15:04:03;6.30;99.90
16871;DHT22;8552;48.120;-1.456;2024-01-11T15:06:32;6.20;99.90
16871;DHT22;8552;48.120;-1.456;2024-01-11T15:08:58;6.10;99.90
16871;DHT22;8552;48.120;-1.456;2024-01-11T15:11:23;6.00;99.90
16871;DHT22;8552;48.120;-1.456;2024-01-11T15:13:49;6.10;99.90
16871;DHT22;8552;48.120;-1.456;2024-01-11T15:16:15;6.00;99.90
16871;DHT22;8552;48.120;-1.456;2024-01-11T15:18:41;5.90;99.90
16871;DHT22;8552;48.120;-1.456;2024-01-11T15:21:06;5.90;99.90
16871;DHT22;8552;48.120;-1.456;2024-01-11T15:23:32;5.90;99.90
16871;DHT22;8552;48.120;-1.456;2024-01-11T15:26:00;5.80;99.90
16871;DHT22;8552;48.120;-1.456;2024-01-11T15:28:25;5.80;99.90
16871;DHT22;8552;48.120;-1.456;2024-01-11T15:30:51;5.60;99.90
16871;DHT22;8552;48.120;-1.456;2024-01-11T15:33:17;5.60;99.90
16871;DHT22;8552;48.120;-1.456;2024-01-11T15:35:42;5.30;99.90
16871;DHT22;8552;48.120;-1.456;2024-01-11T15:38:08;5.30;99.90
16871;DHT22;8552;48.120;-1.456;2024-01-11T15:40:34;5.20;99.90
16871;DHT22;8552;48.120;-1.456;2024-01-11T15:42:59;5.00;99.90
16871;DHT22;8552;48.120;-1.456;2024-01-11T15:45:26;4.80;99.90
16871;DHT22;8552;48.120;-1.456;2024-01-11T15:47:52;4.80;99.90
16871;DHT22;8552;48.120;-1.456;2024-01-11T15:50:17;4.70;99.90
16871;DHT22;8552;48.120;-1.456;2024-01-11T15:52:44;4.70;99.90
16871;DHT22;8552;48.120;-1.456;2024-01-11T15:55:10;4.70;99.90
16871;DHT22;8552;48.120;-1.456;2024-01-11T16:10:32;4.30;99.90
16871;DHT22;8552;48.120;-1.456;2024-01-11T16:41:27;3.40;99.90
16871;DHT22;8552;48.120;-1.456;2024-01-11T16:43:53;3.30;99.90
16871;DHT22;8552;48.120;-1.456;2024-01-11T16:46:19;3.30;99.90
16871;DHT22;8552;48.120;-1.456;2024-01-11T16:48:46;3.30;99.90
16871;DHT22;8552;48.120;-1.456;2024-01-11T16:51:12;3.20;99.90
16871;DHT22;8552;48.120;-1.456;2024-01-11T16:53:42;3.10;99.90
16871;DHT22;8552;48.120;-1.456;2024-01-11T16:56:11;3.00;99.90
16871;DHT22;8552;48.120;-1.456;2024-01-11T16:58:38;3.00;99.90
16871;DHT22;8552;48.120;-1.456;2024-01-11T17:01:06;2.90;99.90
16871;DHT22;8552;48.120;-1.456;2024-01-11T17:03:31;3.00;99.90
16871;DHT22;8552;48.120;-1.456;2024-01-11T17:05:57;2.90;99.90
16871;DHT22;8552;48.120;-1.456;2024-01-11T17:08:23;2.90;99.90
16871;DHT22;8552;48.120;-1.456;2024-01-11T17:10:49;2.90;99.90
16871;DHT22;8552;48.120;-1.456;2024-01-11T17:13:14;2.90;99.90
16871;DHT22;8552;48.120;-1.456;2024-01-11T17:15:41;2.90;99.90
16871;DHT22;8552;48.120;-1.456;2024-01-11T17:18:06;2.90;99.90
16871;DHT22;8552;48.120;-1.456;2024-01-11T17:20:33;2.80;99.90
16871;DHT22;8552;48.120;-1.456;2024-01-11T17:23:02;2.80;99.90
16871;DHT22;8552;48.120;-1.456;2024-01-11T17:25:28;2.60;99.90
16871;DHT22;8552;48.120;-1.456;2024-01-11T17:27:53;2.60;99.90
16871;DHT22;8552;48.120;-1.456;2024-01-11T17:30:19;2.40;99.90
16871;DHT22;8552;48.120;-1.456;2024-01-11T17:32:45;2.40;99.90
16871;DHT22;8552;48.120;-1.456;2024-01-11T17:35:11;2.40;99.90
16871;DHT22;8552;48.120;-1.456;2024-01-11T17:37:37;2.40;99.90
16871;DHT22;8552;48.120;-1.456;2024-01-11T17:40:06;2.40;99.90
16871;DHT22;8552;48.120;-1.456;2024-01-11T17:42:32;2.30;99.90
16871;DHT22;8552;48.120;-1.456;2024-01-11T17:44:58;2.20;99.90
16871;DHT22;8552;48.120;-1.456;2024-01-11T17:47:24;2.30;99.90
16871;DHT22;8552;48.120;-1.456;2024-01-11T17:49:50;2.30;99.90
16871;DHT22;8552;48.120;-1.456;2024-01-11T17:52:16;2.40;99.90
16871;DHT22;8552;48.120;-1.456;2024-01-11T17:54:41;2.40;99.90
16871;DHT22;8552;48.120;-1.456;2024-01-11T17:57:28;2.40;99.90
16871;DHT22;8552;48.120;-1.456;2024-01-11T18:00:04;2.30;99.90
16871;DHT22;8552;48.120;-1.456;2024-01-11T18:02:30;2.40;99.90
16871;DHT22;8552;48.120;-1.456;2024-01-11T18:04:56;2.30;99.90
16871;DHT22;8552;48.120;-1.456;2024-01-11T18:09:57;2.30;99.90
16871;DHT22;8552;48.120;-1.456;2024-01-11T18:12:23;2.30;99.90
16871;DHT22;8552;48.120;-1.456;2024-01-11T18:14:49;2.30;99.90
16871;DHT22;8552;48.120;-1.456;2024-01-11T18:17:15;2.30;99.90
16871;DHT22;8552;48.120;-1.456;2024-01-11T18:19:41;2.30;99.90
16871;DHT22;8552;48.120;-1.456;2024-01-11T18:22:07;2.40;99.90
16871;DHT22;8552;48.120;-1.456;2024-01-11T18:24:35;2.40;99.90
16871;DHT22;8552;48.120;-1.456;2024-01-11T18:27:01;2.40;99.90
16871;DHT22;8552;48.120;-1.456;2024-01-11T18:29:31;2.30;99.90
16871;DHT22;8552;48.120;-1.456;2024-01-11T18:31:57;2.30;99.90
16871;DHT22;8552;48.120;-1.456;2024-01-11T18:34:22;2.20;99.90
16871;DHT22;8552;48.120;-1.456;2024-01-11T18:36:48;2.20;99.90
16871;DHT22;8552;48.120;-1.456;2024-01-11T18:39:14;2.20;99.90
16871;DHT22;8552;48.120;-1.456;2024-01-11T18:41:41;2.20;99.90
16871;DHT22;8552;48.120;-1.456;2024-01-11T18:44:07;2.20;99.90
16871;DHT22;8552;48.120;-1.456;2024-01-11T18:46:39;2.30;99.90
16871;DHT22;8552;48.120;-1.456;2024-01-11T18:49:06;2.20;99.90
16871;DHT22;8552;48.120;-1.456;2024-01-11T18:51:39;2.20;99.90
16871;DHT22;8552;48.120;-1.456;2024-01-11T18:54:05;2.10;99.90
16871;DHT22;8552;48.120;-1.456;2024-01-11T18:56:31;2.20;99.90
16871;DHT22;8552;48.120;-1.456;2024-01-11T18:58:57;2.20;99.90
16871;DHT22;8552;48.120;-1.456;2024-01-11T19:01:23;2.10;99.90
16871;DHT22;8552;48.120;-1.456;2024-01-11T19:03:51;2.10;99.90
16871;DHT22;8552;48.120;-1.456;2024-01-11T19:06:17;2.10;99.90
16871;DHT22;8552;48.120;-1.456;2024-01-11T19:08:43;2.00;99.90
16871;DHT22;8552;48.120;-1.456;2024-01-11T19:11:09;2.00;99.90
16871;DHT22;8552;48.120;-1.456;2024-01-11T19:13:35;2.00;99.90
16871;DHT22;8552;48.120;-1.456;2024-01-11T19:16:05;1.90;99.90
16871;DHT22;8552;48.120;-1.456;2024-01-11T19:18:48;1.80;99.90
16871;DHT22;8552;48.120;-1.456;2024-01-11T19:21:15;1.80;99.90
16871;DHT22;8552;48.120;-1.456;2024-01-11T19:23:44;1.80;99.90
16871;DHT22;8552;48.120;-1.456;2024-01-11T19:26:12;1.80;99.90
16871;DHT22;8552;48.120;-1.456;2024-01-11T19:28:38;1.80;99.90
16871;DHT22;8552;48.120;-1.456;2024-01-11T19:31:05;1.70;99.90
16871;DHT22;8552;48.120;-1.456;2024-01-11T19:33:31;1.60;99.90
16871;DHT22;8552;48.120;-1.456;2024-01-11T19:35:59;1.60;99.90
16871;DHT22;8552;48.120;-1.456;2024-01-11T19:38:26;1.60;99.90
16871;DHT22;8552;48.120;-1.456;2024-01-11T19:40:52;1.60;99.90
16871;DHT22;8552;48.120;-1.456;2024-01-11T19:43:18;1.50;99.90
16871;DHT22;8552;48.120;-1.456;2024-01-11T19:45:43;1.50;99.90
16871;DHT22;8552;48.120;-1.456;2024-01-11T19:48:09;1.30;99.90
16871;DHT22;8552;48.120;-1.456;2024-01-11T19:50:35;1.30;99.90
16871;DHT22;8552;48.120;-1.456;2024-01-11T19:53:01;1.30;99.90
16871;DHT22;8552;48.120;-1.456;2024-01-11T19:55:26;1.30;99.90
16871;DHT22;8552;48.120;-1.456;2024-01-11T19:57:52;1.30;99.90
16871;DHT22;8552;48.120;-1.456;2024-01-11T20:00:18;1.30;99.90
16871;DHT22;8552;48.120;-1.456;2024-01-11T20:02:43;1.30;99.90
16871;DHT22;8552;48.120;-1.456;2024-01-11T20:05:09;1.20;99.90
16871;DHT22;8552;48.120;-1.456;2024-01-11T20:07:35;1.40;99.90
16871;DHT22;8552;48.120;-1.456;2024-01-11T20:10:00;1.40;99.90
16871;DHT22;8552;48.120;-1.456;2024-01-11T20:12:26;1.40;99.90
16871;DHT22;8552;48.120;-1.456;2024-01-11T20:14:52;1.30;99.90
16871;DHT22;8552;48.120;-1.456;2024-01-11T20:17:18;1.40;99.90
16871;DHT22;8552;48.120;-1.456;2024-01-11T20:19:43;1.30;99.90
16871;DHT22;8552;48.120;-1.456;2024-01-11T20:22:09;1.30;99.90
16871;DHT22;8552;48.120;-1.456;2024-01-11T20:24:35;1.30;99.90
16871;DHT22;8552;48.120;-1.456;2024-01-11T20:27:02;1.30;99.90
16871;DHT22;8552;48.120;-1.456;2024-01-11T20:29:30;1.30;99.90
16871;DHT22;8552;48.120;-1.456;2024-01-11T20:31:57;1.30;99.90
16871;DHT22;8552;48.120;-1.456;2024-01-11T20:34:24;1.30;99.90
16871;DHT22;8552;48.120;-1.456;2024-01-11T20:36:51;1.20;99.90
16871;DHT22;8552;48.120;-1.456;2024-01-11T20:39:17;1.10;99.90
16871;DHT22;8552;48.120;-1.456;2024-01-11T20:41:44;1.10;99.90
16871;DHT22;8552;48.120;-1.456;2024-01-11T20:44:39;1.10;99.90
16871;DHT22;8552;48.120;-1.456;2024-01-11T20:47:35;1.10;99.90
16871;DHT22;8552;48.120;-1.456;2024-01-11T20:50:18;1.10;99.90
16871;DHT22;8552;48.120;-1.456;2024-01-11T20:53:00;1.10;99.90
16871;DHT22;8552;48.120;-1.456;2024-01-11T20:55:37;1.20;99.90
16871;DHT22;8552;48.120;-1.456;2024-01-11T20:58:13;1.10;99.90
16871;DHT22;8552;48.120;-1.456;2024-01-11T21:00:41;1.20;99.90
16871;DHT22;8552;48.120;-1.456;2024-01-11T21:03:13;1.10;99.90
16871;DHT22;8552;48.120;-1.456;2024-01-11T21:05:40;1.20;99.90
16871;DHT22;8552;48.120;-1.456;2024-01-11T21:08:26;1.20;99.90
16871;DHT22;8552;48.120;-1.456;2024-01-11T21:11:11;1.30;99.90
16871;DHT22;8552;48.120;-1.456;2024-01-11T21:16:15;1.30;99.90
16871;DHT22;8552;48.120;-1.456;2024-01-11T21:18:50;1.30;99.90
16871;DHT22;8552;48.120;-1.456;2024-01-11T21:21:25;1.30;99.90
16871;DHT22;8552;48.120;-1.456;2024-01-11T21:23:56;1.30;99.90
16871;DHT22;8552;48.120;-1.456;2024-01-11T21:26:44;1.30;99.90
16871;DHT22;8552;48.120;-1.456;2024-01-11T21:29:11;1.30;99.90
16871;DHT22;8552;48.120;-1.456;2024-01-11T21:31:39;1.40;99.90
16871;DHT22;8552;48.120;-1.456;2024-01-11T21:34:08;1.40;99.90
16871;DHT22;8552;48.120;-1.456;2024-01-11T21:36:36;1.40;99.90
16871;DHT22;8552;48.120;-1.456;2024-01-11T21:39:03;1.40;99.90
16871;DHT22;8552;48.120;-1.456;2024-01-11T21:41:32;1.40;99.90
16871;DHT22;8552;48.120;-1.456;2024-01-11T21:44:01;1.40;99.90
16871;DHT22;8552;48.120;-1.456;2024-01-11T21:46:30;1.30;99.90
16871;DHT22;8552;48.120;-1.456;2024-01-11T21:49:02;1.20;99.90
16871;DHT22;8552;48.120;-1.456;2024-01-11T21:51:34;1.30;99.90
16871;DHT22;8552;48.120;-1.456;2024-01-11T21:54:01;1.40;99.90
16871;DHT22;8552;48.120;-1.456;2024-01-11T21:56:28;1.40;99.90
16871;DHT22;8552;48.120;-1.456;2024-01-11T21:58:55;1.50;99.90
16871;DHT22;8552;48.120;-1.456;2024-01-11T22:01:21;1.50;99.90
16871;DHT22;8552;48.120;-1.456;2024-01-11T22:03:48;1.40;99.90
16871;DHT22;8552;48.120;-1.456;2024-01-11T22:06:14;1.30;99.90
16871;DHT22;8552;48.120;-1.456;2024-01-11T22:08:40;1.30;99.90
16871;DHT22;8552;48.120;-1.456;2024-01-11T22:11:06;1.40;99.90
16871;DHT22;8552;48.120;-1.456;2024-01-11T22:13:31;1.30;99.90
16871;DHT22;8552;48.120;-1.456;2024-01-11T22:15:57;1.30;99.90
16871;DHT22;8552;48.120;-1.456;2024-01-11T22:18:24;1.30;99.90
16871;DHT22;8552;48.120;-1.456;2024-01-11T22:20:50;1.20;99.90
16871;DHT22;8552;48.120;-1.456;2024-01-11T22:23:16;1.30;99.90
16871;DHT22;8552;48.120;-1.456;2024-01-11T22:25:41;1.30;99.90
16871;DHT22;8552;48.120;-1.456;2024-01-11T22:28:08;1.30;99.90
16871;DHT22;8552;48.120;-1.456;2024-01-11T22:30:33;1.20;99.90
16871;DHT22;8552;48.120;-1.456;2024-01-11T22:32:59;1.20;99.90
16871;DHT22;8552;48.120;-1.456;2024-01-11T22:35:25;1.20;99.90
16871;DHT22;8552;48.120;-1.456;2024-01-11T22:37:50;1.20;99.90
16871;DHT22;8552;48.120;-1.456;2024-01-11T22:40:16;1.20;99.90
16871;DHT22;8552;48.120;-1.456;2024-01-11T22:42:42;1.20;99.90
16871;DHT22;8552;48.120;-1.456;2024-01-11T22:45:08;1.10;99.90
16871;DHT22;8552;48.120;-1.456;2024-01-11T22:47:34;1.00;99.90
16871;DHT22;8552;48.120;-1.456;2024-01-11T22:50:00;1.10;99.90
16871;DHT22;8552;48.120;-1.456;2024-01-11T22:52:25;1.10;99.90
16871;DHT22;8552;48.120;-1.456;2024-01-11T22:54:51;1.00;99.90
16871;DHT22;8552;48.120;-1.456;2024-01-11T22:57:17;0.90;99.90
16871;DHT22;8552;48.120;-1.456;2024-01-11T22:59:42;1.00;99.90
16871;DHT22;8552;48.120;-1.456;2024-01-11T23:02:08;1.00;99.90
16871;DHT22;8552;48.120;-1.456;2024-01-11T23:04:34;1.00;99.90
16871;DHT22;8552;48.120;-1.456;2024-01-11T23:07:03;0.80;99.90
16871;DHT22;8552;48.120;-1.456;2024-01-11T23:09:33;0.90;99.90
16871;DHT22;8552;48.120;-1.456;2024-01-11T23:12:35;0.90;99.90
16871;DHT22;8552;48.120;-1.456;2024-01-11T23:15:02;1.00;99.90
16871;DHT22;8552;48.120;-1.456;2024-01-11T23:17:28;1.00;99.90
16871;DHT22;8552;48.120;-1.456;2024-01-11T23:19:54;0.90;99.90
16871;DHT22;8552;48.120;-1.456;2024-01-11T23:22:20;0.80;99.90
16871;DHT22;8552;48.120;-1.456;2024-01-11T23:24:52;0.70;99.90
16871;DHT22;8552;48.120;-1.456;2024-01-11T23:35:34;0.50;99.90
16871;DHT22;8552;48.120;-1.456;2024-01-11T23:41:08;0.40;99.90
16871;DHT22;8552;48.120;-1.456;2024-01-11T23:43:34;0.40;99.90
16871;DHT22;8552;48.120;-1.456;2024-01-11T23:46:03;0.60;99.90
16871;DHT22;8552;48.120;-1.456;2024-01-11T23:48:51;0.60;99.90
16871;DHT22;8552;48.120;-1.456;2024-01-11T23:51:20;0.60;99.90
16871;DHT22;8552;48.120;-1.456;2024-01-11T23:53:56;0.50;99.90
16871;DHT22;8552;48.120;-1.456;2024-01-11T23:56:31;0.40;99.90
16871;DHT22;8552;48.120;-1.456;2024-01-11T23:59:08;0.50;99.90
